createdAt,value
2018-05-02T00:02:03.939Z,3.40
2018-05-02T00:04:33.615Z,3.72
2018-05-02T00:07:03.311Z,3.30
2018-05-02T00:09:32.986Z,3.20
2018-05-02T00:12:03.451Z,3.17
2018-05-02T00:14:33.135Z,4.07
2018-05-02T00:17:04.058Z,4.20
2018-05-02T00:19:34.516Z,4.03
2018-05-02T00:22:04.222Z,4.47
2018-05-02T00:24:34.660Z,3.67
2018-05-02T00:27:04.370Z,3.90
2018-05-02T00:29:34.051Z,3.47
2018-05-02T00:32:04.511Z,3.87
2018-05-02T00:34:34.186Z,4.28
2018-05-02T00:37:04.310Z,4.55
2018-05-02T00:39:34.514Z,4.53
2018-05-02T00:42:04.231Z,4.55
2018-05-02T00:44:33.882Z,5.25
2018-05-02T00:47:03.298Z,4.18
2018-05-02T00:49:32.988Z,3.92
2018-05-02T00:52:02.675Z,4.07
2018-05-02T00:54:32.360Z,3.92
2018-05-02T00:57:02.056Z,3.70
2018-05-02T00:59:31.731Z,4.07
2018-05-02T01:02:01.427Z,4.15
2018-05-02T01:04:31.102Z,4.43
2018-05-02T01:07:01.570Z,4.35
2018-05-02T01:09:31.248Z,3.90
2018-05-02T01:12:01.712Z,3.85
2018-05-02T01:14:31.388Z,4.00
2018-05-02T01:17:01.851Z,4.18
2018-05-02T01:19:31.539Z,4.40
2018-05-02T01:22:01.236Z,4.15
2018-05-02T01:24:31.675Z,4.12
2018-05-02T01:27:01.383Z,4.70
2018-05-02T01:29:31.067Z,4.28
2018-05-02T01:32:01.523Z,4.10
2018-05-02T01:34:31.215Z,4.28
2018-05-02T01:37:01.659Z,4.37
2018-05-02T01:39:31.350Z,4.62
2018-05-02T01:42:01.794Z,4.22
2018-05-02T01:44:31.487Z,4.30
2018-05-02T01:47:01.935Z,3.92
2018-05-02T01:49:31.636Z,4.47
2018-05-02T01:52:01.324Z,4.87
2018-05-02T01:54:31.787Z,4.50
2018-05-02T01:57:01.463Z,4.40
2018-05-02T01:59:31.925Z,4.68
2018-05-02T02:02:01.599Z,4.68
2018-05-02T02:04:32.068Z,4.05
2018-05-02T02:07:01.747Z,4.37
2018-05-02T02:09:32.199Z,4.47
2018-05-02T02:12:01.911Z,4.93
2018-05-02T02:14:31.379Z,4.20
2018-05-02T02:17:01.816Z,6.00
2018-05-02T02:19:31.511Z,4.72
2018-05-02T02:22:01.959Z,4.10
2018-05-02T02:24:32.395Z,5.10
2018-05-02T02:27:02.071Z,4.50
2018-05-02T02:29:32.527Z,4.12
2018-05-02T02:32:02.199Z,4.55
2018-05-02T02:34:32.659Z,4.12
2018-05-02T02:37:02.339Z,3.80
2018-05-02T02:39:32.810Z,3.90
2018-05-02T02:42:02.495Z,3.78
2018-05-02T02:44:32.247Z,3.85
2018-05-02T02:47:01.916Z,4.57
2018-05-02T02:49:31.423Z,4.10
2018-05-02T02:52:01.106Z,3.65
2018-05-02T02:54:30.828Z,4.00
2018-05-02T02:57:01.255Z,4.35
2018-05-02T02:59:31.716Z,4.00
2018-05-02T03:02:01.394Z,4.03
2018-05-02T03:04:31.115Z,3.83
2018-05-02T03:07:00.796Z,4.43
2018-05-02T03:09:31.275Z,4.70
2018-05-02T03:12:00.951Z,4.47
2018-05-02T03:14:30.654Z,4.60
2018-05-02T03:17:00.375Z,4.60
2018-05-02T03:19:30.080Z,4.15
2018-05-02T03:21:59.751Z,5.68
2018-05-02T03:24:29.507Z,4.40
2018-05-02T03:26:59.231Z,4.25
2018-05-02T03:29:29.118Z,4.50
2018-05-02T03:31:58.794Z,4.30
2018-05-02T03:34:28.499Z,3.90
2018-05-02T03:36:58.379Z,3.75
2018-05-02T03:39:28.091Z,3.90
2018-05-02T03:41:57.753Z,4.68
2018-05-02T03:44:28.206Z,3.80
2018-05-02T03:46:57.878Z,3.65
2018-05-02T03:49:27.570Z,4.05
2018-05-02T03:51:57.246Z,3.90
2018-05-02T03:54:26.950Z,3.92
2018-05-02T03:56:56.792Z,3.80
2018-05-02T04:02:42.762Z,3.80
2018-05-02T04:05:23.648Z,4.50
2018-05-02T04:07:52.932Z,4.40
2018-05-02T04:10:22.748Z,4.15
2018-05-02T04:12:52.354Z,3.75
2018-05-02T04:15:22.044Z,3.75
2018-05-02T04:17:51.899Z,3.87
2018-05-02T04:20:21.591Z,3.92
2018-05-02T04:22:51.267Z,3.65
2018-05-02T04:25:21.725Z,4.05
2018-05-02T04:27:51.390Z,3.90
2018-05-02T04:30:21.091Z,3.70
2018-05-02T04:32:50.775Z,3.62
2018-05-02T04:35:20.469Z,4.07
2018-05-02T04:37:50.147Z,3.80
2018-05-02T04:40:20.694Z,3.90
2018-05-02T04:42:50.974Z,4.15
2018-05-02T04:45:20.675Z,4.10
2018-05-02T04:47:50.526Z,3.70
2018-05-02T04:50:20.655Z,3.90
2018-05-02T04:52:50.326Z,3.47
2018-05-02T04:55:20.046Z,4.10
2018-05-02T04:57:49.979Z,3.85
2018-05-02T05:00:19.679Z,3.42
2018-05-02T05:02:49.539Z,3.78
2018-05-02T05:05:19.234Z,3.90
2018-05-02T05:07:49.856Z,4.10
2018-05-02T05:10:19.550Z,3.72
2018-05-02T05:12:49.226Z,3.53
2018-05-02T05:15:18.923Z,4.05
2018-05-02T05:17:48.792Z,4.20
2018-05-02T05:20:18.611Z,4.05
2018-05-02T05:22:48.345Z,3.67
2018-05-02T05:25:18.029Z,5.22
2018-05-02T05:27:48.724Z,4.78
2018-05-02T05:30:18.619Z,3.40
2018-05-02T05:32:48.638Z,4.12
2018-05-02T05:35:18.419Z,3.83
2018-05-02T05:37:48.227Z,3.80
2018-05-02T05:40:17.947Z,4.07
2018-05-02T05:42:47.799Z,3.70
2018-05-02T05:45:17.647Z,3.75
2018-05-02T05:47:48.619Z,3.65
2018-05-02T05:50:18.327Z,3.40
2018-05-02T05:52:48.182Z,3.62
2018-05-02T05:55:18.643Z,3.75
2018-05-02T05:57:48.387Z,3.58
2018-05-02T06:00:18.083Z,3.37
2018-05-02T06:02:47.758Z,3.30
2018-05-02T06:05:17.450Z,3.58
2018-05-02T06:07:47.296Z,3.78
2018-05-02T06:10:17.031Z,4.03
2018-05-02T06:12:46.913Z,3.33
2018-05-02T06:15:17.579Z,3.65
2018-05-02T06:17:47.431Z,3.85
2018-05-02T06:20:17.897Z,4.00
2018-05-02T06:22:47.815Z,3.85
2018-05-02T06:25:17.279Z,4.87
2018-05-02T06:27:47.723Z,6.07
2018-05-02T06:30:18.171Z,6.72
2018-05-02T06:32:47.838Z,10.57
2018-05-02T06:35:17.719Z,6.50
2018-05-02T06:37:47.626Z,5.28
2018-05-02T06:40:18.293Z,6.05
2018-05-02T06:42:48.142Z,5.43
2018-05-02T06:45:17.860Z,10.85
2018-05-02T06:47:48.239Z,4.90
2018-05-02T06:50:18.803Z,3.72
2018-05-02T06:52:48.771Z,6.70
2018-05-02T06:55:18.472Z,4.62
2018-05-02T06:57:48.327Z,3.78
2018-05-02T07:00:18.047Z,3.40
2018-05-02T07:02:48.742Z,3.78
2018-05-02T07:05:19.251Z,3.58
2018-05-02T07:07:49.111Z,3.92
2018-05-02T07:10:19.648Z,3.70
2018-05-02T07:12:50.270Z,5.07
2018-05-02T07:15:22.972Z,3.60
2018-05-02T07:17:52.671Z,5.20
2018-05-02T07:20:22.357Z,3.80
2018-05-02T07:22:53.943Z,3.80
2018-05-02T07:25:25.708Z,3.83
2018-05-02T07:27:56.552Z,3.92
2018-05-02T07:30:26.360Z,3.60
2018-05-02T07:32:56.528Z,4.82
2018-05-02T07:35:28.819Z,3.87
2018-05-02T07:37:58.839Z,3.53
2018-05-02T07:40:28.884Z,3.45
2018-05-02T07:42:58.958Z,3.28
2018-05-02T07:45:31.252Z,3.45
2018-05-02T07:48:00.999Z,3.78
2018-05-02T07:50:31.645Z,5.20
2018-05-02T07:53:01.819Z,3.67
2018-05-02T07:55:33.299Z,3.67
2018-05-02T07:58:03.360Z,3.78
2018-05-02T08:00:33.212Z,4.65
2018-05-02T08:03:03.738Z,3.83
2018-05-02T08:05:33.889Z,3.70
2018-05-02T08:08:04.095Z,5.05
2018-05-02T08:10:33.796Z,3.95
2018-05-02T08:13:06.487Z,3.80
2018-05-02T08:15:36.177Z,3.47
2018-05-02T08:18:06.075Z,3.95
2018-05-02T08:20:36.700Z,3.35
2018-05-02T08:23:06.400Z,3.30
2018-05-02T08:25:36.078Z,3.45
2018-05-02T08:28:05.825Z,3.87
2018-05-02T08:30:35.507Z,4.43
2018-05-02T08:33:05.980Z,3.65
2018-05-02T08:35:35.658Z,3.50
2018-05-02T08:38:05.831Z,3.85
2018-05-02T08:40:35.991Z,4.35
2018-05-02T08:43:06.475Z,4.15
2018-05-02T08:45:36.154Z,3.37
2018-05-02T08:48:05.862Z,3.37
2018-05-02T08:50:35.540Z,3.60
2018-05-02T08:53:05.263Z,3.55
2018-05-02T08:55:35.706Z,3.42
2018-05-02T08:58:05.408Z,3.37
2018-05-02T09:00:35.100Z,3.40
2018-05-02T09:03:05.565Z,3.67
2018-05-02T09:05:35.247Z,4.00
2018-05-02T09:08:05.706Z,3.42
2018-05-02T09:10:35.391Z,3.47
2018-05-02T09:13:05.095Z,2.78
2018-05-02T09:15:34.877Z,3.53
2018-05-02T09:18:05.462Z,3.47
2018-05-02T09:20:36.263Z,3.90
2018-05-02T09:23:06.737Z,3.40
2018-05-02T09:25:36.425Z,3.55
2018-05-02T09:28:06.119Z,3.97
2018-05-02T09:30:37.302Z,3.67
2018-05-02T09:33:07.015Z,3.37
2018-05-02T09:35:36.727Z,3.97
2018-05-02T09:38:06.598Z,3.65
2018-05-02T09:40:36.288Z,3.15
2018-05-02T09:43:06.763Z,3.80
2018-05-02T09:45:36.475Z,3.80
2018-05-02T09:48:06.185Z,4.12
2018-05-02T09:50:35.866Z,3.55
2018-05-02T09:53:05.567Z,3.85
2018-05-02T09:55:35.266Z,4.55
2018-05-02T09:58:05.924Z,3.40
2018-05-02T10:00:35.623Z,3.62
2018-05-02T10:03:05.316Z,3.62
2018-05-02T10:05:35.778Z,3.20
2018-05-02T10:08:05.468Z,3.92
2018-05-02T10:10:35.162Z,3.47
2018-05-02T10:13:05.619Z,3.33
2018-05-02T10:15:35.331Z,4.12
2018-05-02T10:18:05.007Z,3.30
2018-05-02T10:20:35.474Z,3.90
2018-05-02T10:23:04.503Z,4.00
2018-05-02T10:25:34.238Z,3.45
2018-05-02T10:28:03.931Z,4.80
2018-05-02T10:30:33.630Z,3.47
2018-05-02T10:33:03.307Z,3.20
2018-05-02T10:35:33.006Z,2.90
2018-05-02T10:38:02.699Z,3.40
2018-05-02T10:40:32.396Z,3.28
2018-05-02T10:43:02.894Z,3.50
2018-05-02T10:45:32.797Z,3.45
2018-05-02T10:48:02.497Z,2.80
2018-05-02T10:50:31.982Z,3.20
2018-05-02T10:53:02.067Z,3.03
2018-05-02T10:55:32.304Z,3.28
2018-05-02T10:58:01.987Z,4.70
2018-05-02T11:00:32.515Z,2.97
2018-05-02T11:03:03.026Z,2.90
2018-05-02T11:05:32.897Z,3.50
2018-05-02T11:08:02.680Z,4.20
2018-05-02T11:10:33.151Z,5.90
2018-05-02T11:13:02.837Z,3.25
2018-05-02T11:15:32.552Z,3.60
2018-05-02T11:18:02.426Z,3.40
2018-05-02T11:20:33.040Z,3.10
2018-05-02T11:23:02.805Z,3.25
2018-05-02T11:25:32.571Z,3.62
2018-05-02T11:28:02.352Z,3.03
2018-05-02T11:30:32.148Z,3.40
2018-05-02T11:33:01.859Z,6.45
2018-05-02T11:35:31.623Z,3.10
2018-05-02T11:38:02.140Z,2.97
2018-05-02T11:40:31.886Z,3.05
2018-05-02T11:43:01.814Z,3.10
2018-05-02T11:45:31.549Z,2.97
2018-05-02T11:48:01.237Z,2.72
2018-05-02T11:50:30.953Z,2.75
2018-05-02T11:53:00.639Z,3.03
2018-05-02T11:55:30.344Z,3.58
2018-05-02T11:58:00.378Z,3.70
2018-05-02T12:00:30.067Z,2.95
2018-05-02T12:02:59.870Z,2.90
2018-05-02T12:05:30.491Z,2.97
2018-05-02T12:08:01.748Z,2.47
2018-05-02T12:10:32.275Z,2.80
2018-05-02T12:13:02.118Z,3.00
2018-05-02T12:15:31.811Z,3.50
2018-05-02T12:18:01.491Z,2.87
2018-05-02T12:20:31.191Z,2.78
2018-05-02T12:23:01.063Z,2.97
2018-05-02T12:25:30.767Z,3.15
2018-05-02T12:28:00.455Z,2.80
2018-05-02T12:30:30.163Z,3.05
2018-05-02T12:33:00.475Z,3.08
2018-05-02T12:35:30.972Z,3.12
2018-05-02T12:38:00.830Z,3.30
2018-05-02T12:40:30.531Z,3.10
2018-05-02T12:43:01.111Z,2.97
2018-05-02T12:45:30.831Z,3.03
2018-05-02T12:48:00.507Z,2.87
2018-05-02T12:50:30.203Z,2.87
2018-05-02T12:53:00.067Z,2.53
2018-05-02T12:55:30.489Z,3.00
2018-05-02T12:58:00.170Z,3.10
2018-05-02T13:00:29.879Z,3.05
2018-05-02T13:02:59.563Z,3.10
2018-05-02T13:05:29.276Z,3.80
2018-05-02T13:07:58.959Z,2.85
2018-05-02T13:10:29.435Z,2.83
2018-05-02T13:13:00.067Z,2.72
2018-05-02T13:15:30.383Z,3.37
2018-05-02T13:18:00.079Z,3.20
2018-05-02T13:20:29.792Z,2.80
2018-05-02T13:22:59.491Z,3.08
2018-05-02T13:25:29.203Z,3.58
2018-05-02T13:27:58.895Z,3.20
2018-05-02T13:30:29.357Z,3.28
2018-05-02T13:32:59.058Z,5.12
2018-05-02T13:35:28.743Z,3.20
2018-05-02T13:37:58.621Z,3.12
2018-05-02T13:40:28.299Z,2.97
2018-05-02T13:42:57.999Z,3.35
2018-05-02T13:45:27.702Z,3.55
2018-05-02T13:47:57.581Z,3.15
2018-05-02T13:50:27.258Z,3.53
2018-05-02T13:52:56.971Z,3.40
2018-05-02T13:55:26.680Z,3.28
2018-05-02T13:57:56.543Z,3.37
2018-05-02T14:00:27.130Z,3.58
2018-05-02T14:02:56.843Z,3.10
2018-05-02T14:05:27.549Z,3.45
2018-05-02T14:07:58.276Z,3.65
2018-05-02T14:10:27.982Z,3.20
2018-05-02T14:12:57.687Z,3.37
2018-05-02T14:15:27.371Z,3.65
2018-05-02T14:17:57.246Z,3.50
2018-05-02T14:20:26.925Z,3.65
2018-05-02T14:22:56.635Z,5.57
2018-05-02T14:25:26.312Z,3.87
2018-05-02T14:27:56.989Z,3.95
2018-05-02T14:30:26.707Z,4.60
2018-05-02T14:32:56.549Z,3.60
2018-05-02T14:35:26.342Z,4.53
2018-05-02T14:37:56.771Z,5.03
2018-05-02T14:40:26.459Z,4.28
2018-05-02T14:42:56.159Z,3.00
2018-05-02T14:45:25.886Z,4.20
2018-05-02T14:47:56.706Z,4.07
2018-05-02T14:50:26.403Z,3.95
2018-05-02T14:52:57.043Z,4.05
2018-05-02T14:55:26.739Z,4.72
2018-05-02T14:57:56.702Z,4.62
2018-05-02T15:00:26.672Z,4.55
2018-05-02T15:02:56.395Z,4.40
2018-05-02T15:05:26.078Z,4.97
2018-05-02T15:07:56.014Z,4.53
2018-05-02T15:10:25.722Z,4.90
2018-05-02T15:12:55.418Z,4.32
2018-05-02T15:15:25.215Z,6.35
2018-05-02T15:17:55.779Z,4.90
2018-05-02T15:20:25.595Z,4.43
2018-05-02T15:22:55.303Z,4.20
2018-05-02T15:25:24.987Z,4.32
2018-05-02T15:27:54.858Z,4.32
2018-05-02T15:30:24.539Z,3.55
2018-05-02T15:32:54.415Z,4.32
2018-05-02T15:35:24.879Z,4.47
2018-05-02T15:37:54.578Z,4.15
2018-05-02T15:40:24.317Z,4.50
2018-05-02T15:42:54.006Z,3.87
2018-05-02T15:45:23.685Z,4.07
2018-05-02T15:47:53.382Z,4.45
2018-05-02T15:50:23.826Z,4.53
2018-05-02T15:52:53.529Z,4.00
2018-05-02T15:55:23.215Z,4.12
2018-05-02T15:57:52.962Z,4.80
2018-05-02T16:00:23.589Z,3.80
2018-05-02T16:02:53.470Z,4.10
2018-05-02T16:05:23.929Z,4.30
2018-05-02T16:07:53.811Z,4.20
2018-05-02T16:10:24.267Z,4.72
2018-05-02T16:12:53.987Z,4.20
2018-05-02T16:15:23.667Z,4.30
2018-05-02T16:17:53.543Z,4.05
2018-05-02T16:20:23.242Z,4.45
2018-05-02T16:22:53.119Z,4.70
2018-05-02T16:25:22.814Z,4.07
2018-05-02T16:27:53.350Z,3.95
2018-05-02T16:30:23.203Z,4.03
2018-05-02T16:32:52.938Z,4.32
2018-05-02T16:35:23.469Z,4.12
2018-05-02T16:37:53.334Z,3.75
2018-05-02T16:40:23.217Z,4.07
2018-05-02T16:42:53.400Z,4.15
2018-05-02T16:45:23.170Z,4.12
2018-05-02T16:47:53.123Z,3.87
2018-05-02T16:50:22.897Z,4.40
2018-05-02T16:52:52.759Z,4.47
2018-05-02T16:55:22.468Z,4.37
2018-05-02T16:57:53.043Z,3.90
2018-05-02T17:00:22.752Z,4.32
2018-05-02T17:02:52.442Z,5.93
2018-05-02T17:05:22.911Z,4.40
2018-05-02T17:07:53.529Z,5.05
2018-05-02T17:10:23.228Z,4.90
2018-05-02T17:12:53.246Z,4.80
2018-05-02T17:15:23.083Z,7.65
2018-05-02T17:17:53.695Z,5.30
2018-05-02T17:20:23.404Z,4.57
2018-05-02T17:22:53.087Z,4.40
2018-05-02T17:25:22.785Z,4.95
2018-05-02T17:27:52.474Z,4.70
2018-05-02T17:30:22.175Z,4.95
2018-05-02T17:32:52.018Z,6.25
2018-05-02T17:35:22.490Z,4.97
2018-05-02T17:37:52.875Z,4.47
2018-05-02T17:40:23.343Z,4.40
2018-05-02T17:42:53.960Z,6.95
2018-05-02T17:45:23.662Z,4.60
2018-05-02T17:47:53.503Z,5.22
2018-05-02T17:50:23.187Z,5.35
2018-05-02T17:52:53.639Z,5.05
2018-05-02T17:55:23.935Z,6.28
2018-05-02T17:57:53.795Z,4.78
2018-05-02T18:00:23.502Z,4.35
2018-05-02T18:02:53.360Z,5.35
2018-05-02T18:05:23.903Z,4.55
2018-05-02T18:07:53.604Z,4.47
2018-05-02T18:10:23.332Z,4.32
2018-05-02T18:12:53.982Z,4.12
2018-05-02T18:15:23.671Z,5.55
2018-05-02T18:17:53.364Z,3.87
2018-05-02T18:20:23.075Z,4.62
2018-05-02T18:22:52.824Z,4.62
2018-05-02T18:25:22.651Z,5.25
2018-05-02T18:27:52.525Z,4.53
2018-05-02T18:30:22.240Z,4.55
2018-05-02T18:32:52.865Z,3.40
2018-05-02T18:35:22.570Z,4.60
2018-05-02T18:37:52.256Z,4.37
2018-05-02T18:40:22.723Z,4.60
2018-05-02T18:42:53.489Z,4.32
2018-05-02T18:45:23.514Z,4.00
2018-05-02T18:47:53.375Z,4.10
2018-05-02T18:50:23.098Z,4.62
2018-05-02T18:52:52.773Z,5.20
2018-05-02T18:55:23.240Z,4.45
2018-05-02T18:57:52.939Z,4.95
2018-05-02T19:00:22.667Z,4.55
2018-05-02T19:02:52.583Z,4.97
2018-05-02T19:05:22.315Z,4.60
2018-05-02T19:07:55.251Z,3.95
2018-05-02T19:10:24.988Z,4.78
2018-05-02T19:12:54.679Z,4.65
2018-05-02T19:15:24.387Z,3.45
2018-05-02T19:17:59.471Z,4.22
2018-05-02T19:20:34.475Z,4.57
2018-05-02T19:23:04.155Z,3.92
2018-05-02T19:25:39.575Z,4.40
2018-05-02T19:28:09.284Z,5.07
2018-05-02T19:30:39.780Z,5.32
2018-05-02T19:33:14.964Z,4.57
2018-05-02T19:35:44.674Z,4.20
2018-05-02T19:38:15.103Z,7.68
2018-05-02T19:40:50.931Z,5.32
2018-05-02T19:43:26.750Z,4.32
2018-05-02T19:45:56.462Z,7.00
2018-05-02T19:48:26.135Z,6.28
2018-05-02T19:51:02.124Z,5.30
2018-05-02T19:53:31.924Z,5.68
2018-05-02T19:56:01.610Z,5.90
2018-05-02T19:58:31.297Z,4.50
2018-05-02T20:04:05.762Z,5.10
2018-05-02T20:06:35.454Z,5.05
2018-05-02T20:09:11.730Z,5.55
2018-05-02T20:11:46.926Z,4.95
2018-05-02T20:14:16.624Z,4.90
2018-05-02T20:16:46.392Z,4.60
2018-05-02T20:19:16.809Z,5.07
2018-05-02T20:21:46.513Z,4.47
2018-05-02T20:24:16.968Z,4.57
2018-05-02T20:26:46.671Z,4.40
2018-05-02T20:29:16.359Z,4.70
2018-05-02T20:31:46.062Z,4.35
2018-05-02T20:34:16.518Z,5.15
2018-05-02T20:36:46.235Z,4.82
2018-05-02T20:39:15.903Z,5.28
2018-05-02T20:41:46.487Z,5.25
2018-05-02T20:44:16.601Z,5.40
2018-05-02T20:46:46.572Z,6.60
2018-05-02T20:49:16.617Z,5.30
2018-05-02T20:51:46.750Z,6.40
2018-05-02T20:54:16.453Z,6.70
2018-05-02T20:56:46.613Z,6.62
2018-05-02T20:59:16.794Z,6.72
2018-05-02T21:01:46.956Z,6.57
2018-05-02T21:04:17.308Z,6.68
2018-05-02T21:06:47.295Z,6.05
2018-05-02T21:09:17.292Z,5.30
2018-05-02T21:11:47.131Z,4.85
2018-05-02T21:14:17.075Z,4.87
2018-05-02T21:16:48.008Z,5.65
2018-05-02T21:19:17.868Z,5.45
2018-05-02T21:21:48.163Z,4.80
2018-05-02T21:24:18.676Z,4.37
2018-05-02T21:26:48.585Z,4.80
2018-05-02T21:29:18.673Z,4.37
2018-05-02T21:31:48.451Z,5.55
2018-05-02T21:34:18.123Z,6.32
2018-05-02T21:36:48.599Z,4.40
2018-05-02T21:39:19.047Z,5.05
2018-05-02T21:41:48.746Z,4.60
2018-05-02T21:44:18.410Z,5.15
2018-05-02T21:46:48.131Z,4.80
2018-05-02T21:49:17.850Z,4.65
2018-05-02T21:51:47.530Z,5.28
2018-05-02T21:54:18.044Z,5.15
2018-05-02T21:56:47.863Z,5.37
2018-05-02T21:59:18.303Z,5.20
2018-05-02T22:01:47.979Z,5.70
2018-05-02T22:04:17.675Z,6.40
2018-05-02T22:06:47.352Z,5.68
2018-05-02T22:09:17.061Z,6.00
2018-05-02T22:11:46.736Z,5.70
2018-05-02T22:14:17.192Z,5.35
2018-05-02T22:16:46.873Z,4.25
2018-05-02T22:19:17.325Z,5.15
2018-05-02T22:21:46.987Z,5.07
2018-05-02T22:24:17.455Z,4.60
2018-05-02T22:26:47.118Z,5.12
2018-05-02T22:29:16.830Z,5.10
2018-05-02T22:31:46.515Z,4.90
2018-05-02T22:34:16.203Z,5.05
2018-05-02T22:36:45.874Z,5.60
2018-05-02T22:39:15.559Z,5.12
2018-05-02T22:41:45.296Z,5.10
2018-05-02T22:44:15.119Z,5.18
2018-05-02T22:46:44.802Z,4.00
2018-05-02T22:49:15.278Z,4.45
2018-05-02T22:51:44.984Z,4.07
2018-05-02T22:54:14.680Z,4.37
2018-05-02T22:56:44.375Z,3.95
2018-05-02T22:59:14.059Z,4.43
2018-05-02T23:01:44.538Z,4.40
2018-05-02T23:04:14.399Z,5.40
2018-05-02T23:06:44.078Z,5.15
2018-05-02T23:09:13.747Z,6.28
2018-05-02T23:11:44.195Z,5.30
2018-05-02T23:14:13.882Z,4.80
2018-05-02T23:16:44.339Z,4.97
2018-05-02T23:19:14.030Z,4.18
2018-05-02T23:21:43.724Z,5.00
2018-05-02T23:24:13.422Z,4.85
2018-05-02T23:26:43.896Z,4.53
2018-05-02T23:29:13.579Z,4.97
2018-05-02T23:31:42.951Z,4.87
2018-05-02T23:34:13.400Z,4.50
2018-05-02T23:36:43.103Z,4.60
2018-05-02T23:39:12.787Z,4.18
2018-05-02T23:41:42.476Z,5.55
2018-05-02T23:44:12.936Z,4.95
2018-05-02T23:46:42.614Z,5.20
2018-05-02T23:49:12.278Z,5.30
2018-05-02T23:51:41.967Z,5.40
2018-05-02T23:54:12.404Z,5.85
2018-05-02T23:56:42.860Z,5.85
2018-05-02T23:59:12.546Z,5.70
